Airfield :
LOGIN :

Register | Disclaimer

   EN    FR    IT 

 










Legend :    VFR   Marginal VFR   IFR   Intensive IFR   Very Intensive IFR
Visi :
Ceiling :
>= 8 km
>= 3000ft
5 to 8 km
1000 to 3000 ft
1500m to 5 km
500 to 1000 ft
800 to 1500m
200 to 500 ft
< 800m
< 200 ft
Symbols :   Thunderstorms  Fog  Heavy snow  Heavy precipitations  Wind > 20 kt
SIGMETs :     Misc.  Thunderstorms  Icing  Turbulence  Mountain Waves  Volcanic Ashes







- Airport Elevation : 49 ft
- IATA code : GLZ


EHGR - Gilze-Rijen Airbase

CURRENT METAR :
  • 161125Z AUTO 20013KT 150V250 9999 SCT014 OVC016 06/04 Q1008 GRN 21012KT 9999 BKN015 OVC020

EXPIRED METARs :
  • 161101Z AUTO 21012KT 170V260 9999 SCT014 OVC017 07/04 Q1009 GRN 21012KT 9999 BKN015 OVC020
  • 161048Z AUTO 21010KT 180V260 9999 SCT014 OVC016 06/04 Q1009 GRN 21012KT 9999 BKN015 OVC020
  • 161034Z AUTO 21012KT 180V250 9999 OVC016 06/03 Q1009 WHT 21012KT 9999 BKN015 OVC020
  • 161025Z AUTO 21011KT 160V260 9999 BKN016 OVC019 06/04 Q1009 WHT
  • 160955Z AUTO 21012KT 180V270 9999 BKN016 OVC027 06/03 Q1010 WHT
  • 160935Z AUTO 21012KT 180V250 9999 SCT017 BKN029 OVC033 06/03 Q1010 WHT
  • 160931Z AUTO 21013KT 160V250 9999 FEW016 BKN027 BKN031 06/03 Q1010 BLU
  • 160908Z AUTO 21012KT 170V260 9999 FEW017 SCT022 BKN025 06/03 Q1010 WHT
  • 160855Z AUTO 21010KT 160V250 9999 FEW027 OVC031 06/03 Q1010 BLU

TAF TAF EHGR
Valid from the 16 at 10:00 until the 16 at 22:00 UTC


160945Z 1610/1622 21014KT 9999 FEW017 SCT020 BKN030
PROB30
TEMPO 1610/1620 SCT018 BKN020
TEMPO 1620/1622 23014G24KT 4000 RA SCT010 BKN015
No reported NOTAMs for that airfield.



MET'MAP, your aeronautical weather chart ! - Copyright ORBIFLY December 2007 - Disclaimer

ORBIFLY MET'MAP TEAM :

Programming & Development : Alexandra Zaïnal
Concept & Development : Baudouin d'Aumeries
Co-Development & Prog : Marc-Olivier Méhu
Technical & hardware support : Manuel Goepfert

Contact : metmap@orbifly.com




SOURCES & CREDITS :

   NOAA